sensor_id;sensor_type;location;lat;lon;timestamp;pressure;altitude;pressure_sealevel;temperature;humidity
47742;BME280;33504;52.066;6.096;2023-02-14T00:01:22;103437.00;;;6.20;43.97
47742;BME280;33504;52.066;6.096;2023-02-14T00:03:49;103436.93;;;6.17;43.97
47742;BME280;33504;52.066;6.096;2023-02-14T00:06:16;103438.40;;;5.87;44.00
47742;BME280;33504;52.066;6.096;2023-02-14T00:08:43;103441.23;;;6.34;43.98
47742;BME280;33504;52.066;6.096;2023-02-14T00:11:11;103441.86;;;5.83;43.96
47742;BME280;33504;52.066;6.096;2023-02-14T00:13:39;103438.99;;;5.83;43.88
47742;BME280;33504;52.066;6.096;2023-02-14T00:16:06;103437.74;;;5.77;43.84
47742;BME280;33504;52.066;6.096;2023-02-14T00:18:33;103436.25;;;5.72;43.82
47742;BME280;33504;52.066;6.096;2023-02-14T00:20:59;103436.94;;;6.13;43.79
47742;BME280;33504;52.066;6.096;2023-02-14T00:23:26;103434.96;;;6.08;43.82
47742;BME280;33504;52.066;6.096;2023-02-14T00:25:53;103432.24;;;5.77;43.79
47742;BME280;33504;52.066;6.096;2023-02-14T00:28:20;103429.65;;;5.89;43.92
47742;BME280;33504;52.066;6.096;2023-02-14T00:30:47;103428.97;;;5.58;43.97
47742;BME280;33504;52.066;6.096;2023-02-14T00:33:15;103430.41;;;5.73;44.11
47742;BME280;33504;52.066;6.096;2023-02-14T00:35:42;103426.39;;;5.68;44.27
47742;BME280;33504;52.066;6.096;2023-02-14T00:38:09;103426.80;;;5.66;44.35
47742;BME280;33504;52.066;6.096;2023-02-14T00:40:37;103425.55;;;5.64;44.55
47742;BME280;33504;52.066;6.096;2023-02-14T00:43:03;103422.97;;;5.64;44.61
47742;BME280;33504;52.066;6.096;2023-02-14T00:45:30;103420.94;;;5.62;44.37
47742;BME280;33504;52.066;6.096;2023-02-14T00:47:57;103419.32;;;5.59;44.13
47742;BME280;33504;52.066;6.096;2023-02-14T00:50:24;103420.85;;;5.33;44.03
47742;BME280;33504;52.066;6.096;2023-02-14T00:52:51;103420.40;;;5.51;44.09
47742;BME280;33504;52.066;6.096;2023-02-14T00:55:18;103420.36;;;5.49;43.99
47742;BME280;33504;52.066;6.096;2023-02-14T00:57:45;103421.48;;;5.46;43.81
47742;BME280;33504;52.066;6.096;2023-02-14T01:00:14;103418.38;;;5.42;43.89
47742;BME280;33504;52.066;6.096;2023-02-14T01:02:41;103417.74;;;5.41;43.88
47742;BME280;33504;52.066;6.096;2023-02-14T01:05:08;103423.53;;;5.17;43.84
47742;BME280;33504;52.066;6.096;2023-02-14T01:07:35;103422.72;;;5.37;43.99
47742;BME280;33504;52.066;6.096;2023-02-14T01:10:03;103423.85;;;5.34;44.04
47742;BME280;33504;52.066;6.096;2023-02-14T01:12:30;103420.00;;;5.28;44.04
47742;BME280;33504;52.066;6.096;2023-02-14T01:14:57;103419.88;;;5.24;44.12
47742;BME280;33504;52.066;6.096;2023-02-14T01:17:25;103419.58;;;5.20;44.07
47742;BME280;33504;52.066;6.096;2023-02-14T01:19:53;103418.40;;;4.95;44.10
47742;BME280;33504;52.066;6.096;2023-02-14T01:22:20;103418.39;;;5.12;44.20
47742;BME280;33504;52.066;6.096;2023-02-14T01:24:47;103416.36;;;5.11;44.26
47742;BME280;33504;52.066;6.096;2023-02-14T01:27:14;103413.01;;;5.11;44.41
47742;BME280;33504;52.066;6.096;2023-02-14T01:29:41;103410.43;;;5.10;44.54
47742;BME280;33504;52.066;6.096;2023-02-14T01:32:08;103416.19;;;5.11;44.44
47742;BME280;33504;52.066;6.096;2023-02-14T01:34:35;103418.18;;;5.33;44.44
47742;BME280;33504;52.066;6.096;2023-02-14T01:37:02;103417.41;;;5.11;44.39
47742;BME280;33504;52.066;6.096;2023-02-14T01:39:29;103418.19;;;5.09;44.19
47742;BME280;33504;52.066;6.096;2023-02-14T01:41:56;103422.31;;;5.04;44.27
47742;BME280;33504;52.066;6.096;2023-02-14T01:45:00;103420.72;;;5.68;44.41
47742;BME280;33504;52.066;6.096;2023-02-14T01:47:30;103420.89;;;5.12;44.59
47742;BME280;33504;52.066;6.096;2023-02-14T01:50:03;103420.30;;;4.88;44.62
47742;BME280;33504;52.066;6.096;2023-02-14T01:52:33;103416.99;;;4.83;44.81
47742;BME280;33504;52.066;6.096;2023-02-14T01:55:07;103414.16;;;4.79;44.76
47742;BME280;33504;52.066;6.096;2023-02-14T01:57:38;103412.65;;;4.98;44.90
47742;BME280;33504;52.066;6.096;2023-02-14T02:00:08;103410.89;;;4.98;44.85
47742;BME280;33504;52.066;6.096;2023-02-14T02:02:35;103412.98;;;4.97;44.80
47742;BME280;33504;52.066;6.096;2023-02-14T02:05:02;103412.95;;;4.72;44.42
47742;BME280;33504;52.066;6.096;2023-02-14T02:07:29;103413.27;;;4.66;44.10
47742;BME280;33504;52.066;6.096;2023-02-14T02:09:59;103411.23;;;4.83;44.01
47742;BME280;33504;52.066;6.096;2023-02-14T02:12:28;103410.16;;;4.79;43.74
47742;BME280;33504;52.066;6.096;2023-02-14T02:14:58;103404.28;;;4.71;43.92
47742;BME280;33504;52.066;6.096;2023-02-14T02:17:33;103400.25;;;4.67;44.33
47742;BME280;33504;52.066;6.096;2023-02-14T02:20:27;103401.86;;;4.64;44.69
47742;BME280;33504;52.066;6.096;2023-02-14T02:23:20;103401.87;;;4.56;45.10
47742;BME280;33504;52.066;6.096;2023-02-14T02:26:25;103400.53;;;4.51;45.29
47742;BME280;33504;52.066;6.096;2023-02-14T02:29:32;103398.86;;;4.48;45.49
47742;BME280;33504;52.066;6.096;2023-02-14T02:32:25;103396.46;;;4.44;45.72
47742;BME280;33504;52.066;6.096;2023-02-14T02:35:09;103394.88;;;4.70;45.71
47742;BME280;33504;52.066;6.096;2023-02-14T02:37:48;103393.67;;;4.42;45.61
47742;BME280;33504;52.066;6.096;2023-02-14T02:40:27;103395.41;;;4.64;45.54
47742;BME280;33504;52.066;6.096;2023-02-14T02:43:07;103393.52;;;4.10;45.54
47742;BME280;33504;52.066;6.096;2023-02-14T02:45:43;103389.34;;;4.26;45.56
47742;BME280;33504;52.066;6.096;2023-02-14T02:48:16;103388.07;;;4.19;45.76
47742;BME280;33504;52.066;6.096;2023-02-14T02:50:50;103391.39;;;4.43;45.60
47742;BME280;33504;52.066;6.096;2023-02-14T02:53:22;103390.21;;;4.11;45.63
47742;BME280;33504;52.066;6.096;2023-02-14T02:55:56;103391.62;;;4.32;45.58
47742;BME280;33504;52.066;6.096;2023-02-14T02:58:26;103388.88;;;4.24;45.55
47742;BME280;33504;52.066;6.096;2023-02-14T03:00:57;103388.82;;;4.15;45.72
47742;BME280;33504;52.066;6.096;2023-02-14T03:03:26;103387.88;;;4.08;45.72
47742;BME280;33504;52.066;6.096;2023-02-14T03:05:57;103387.24;;;4.05;45.91
47742;BME280;33504;52.066;6.096;2023-02-14T03:08:24;103387.18;;;3.79;46.03
47742;BME280;33504;52.066;6.096;2023-02-14T03:10:51;103384.03;;;4.08;46.05
47742;BME280;33504;52.066;6.096;2023-02-14T03:13:33;103383.90;;;3.84;46.08
47742;BME280;33504;52.066;6.096;2023-02-14T03:16:31;103381.75;;;4.12;46.19
47742;BME280;33504;52.066;6.096;2023-02-14T03:19:16;103378.85;;;3.85;46.17
47742;BME280;33504;52.066;6.096;2023-02-14T03:21:53;103375.59;;;3.87;46.05
47742;BME280;33504;52.066;6.096;2023-02-14T03:24:26;103376.15;;;4.13;45.86
47742;BME280;33504;52.066;6.096;2023-02-14T03:27:00;103373.15;;;4.10;45.67
47742;BME280;33504;52.066;6.096;2023-02-14T03:29:36;103373.76;;;3.82;45.70
47742;BME280;33504;52.066;6.096;2023-02-14T03:32:12;103371.75;;;4.06;45.50
47742;BME280;33504;52.066;6.096;2023-02-14T03:34:48;103370.60;;;4.05;45.46
47742;BME280;33504;52.066;6.096;2023-02-14T03:37:23;103370.30;;;4.01;45.57
47742;BME280;33504;52.066;6.096;2023-02-14T03:39:58;103368.69;;;4.03;45.67
47742;BME280;33504;52.066;6.096;2023-02-14T03:42:34;103366.38;;;4.03;45.56
47742;BME280;33504;52.066;6.096;2023-02-14T03:45:05;103367.55;;;3.73;45.71
47742;BME280;33504;52.066;6.096;2023-02-14T03:47:36;103367.68;;;3.97;45.71
47742;BME280;33504;52.066;6.096;2023-02-14T03:50:09;103369.35;;;3.94;45.64
47742;BME280;33504;52.066;6.096;2023-02-14T03:52:39;103369.25;;;3.93;45.64
47742;BME280;33504;52.066;6.096;2023-02-14T03:55:07;103371.56;;;3.91;45.44
47742;BME280;33504;52.066;6.096;2023-02-14T03:57:40;103371.63;;;3.88;45.49
47742;BME280;33504;52.066;6.096;2023-02-14T04:00:09;103371.10;;;3.85;45.58
47742;BME280;33504;52.066;6.096;2023-02-14T04:02:40;103369.24;;;3.84;45.67
47742;BME280;33504;52.066;6.096;2023-02-14T04:05:12;103369.02;;;3.85;45.72
47742;BME280;33504;52.066;6.096;2023-02-14T04:07:45;103370.67;;;3.85;45.62
47742;BME280;33504;52.066;6.096;2023-02-14T04:10:13;103373.54;;;3.81;45.41
47742;BME280;33504;52.066;6.096;2023-02-14T04:12:41;103375.58;;;3.80;45.50
47742;BME280;33504;52.066;6.096;2023-02-14T04:15:08;103375.64;;;3.79;45.54
47742;BME280;33504;52.066;6.096;2023-02-14T04:17:36;103372.63;;;3.99;45.50
47742;BME280;33504;52.066;6.096;2023-02-14T04:20:03;103377.08;;;3.76;45.42
47742;BME280;33504;52.066;6.096;2023-02-14T04:22:31;103377.57;;;3.77;45.43
47742;BME280;33504;52.066;6.096;2023-02-14T04:24:58;103379.82;;;3.77;45.30
47742;BME280;33504;52.066;6.096;2023-02-14T04:27:24;103380.72;;;3.96;45.22
47742;BME280;33504;52.066;6.096;2023-02-14T04:29:51;103378.70;;;4.21;45.22
47742;BME280;33504;52.066;6.096;2023-02-14T04:32:20;103381.08;;;3.69;45.16
47742;BME280;33504;52.066;6.096;2023-02-14T04:34:48;103380.81;;;3.67;45.14
47742;BME280;33504;52.066;6.096;2023-02-14T04:37:18;103382.51;;;3.66;45.18
47742;BME280;33504;52.066;6.096;2023-02-14T04:39:45;103380.38;;;3.65;45.12
47742;BME280;33504;52.066;6.096;2023-02-14T04:42:14;103376.98;;;3.64;45.16
47742;BME280;33504;52.066;6.096;2023-02-14T04:44:41;103371.61;;;3.63;45.18
47742;BME280;33504;52.066;6.096;2023-02-14T04:47:08;103372.17;;;3.60;45.12
47742;BME280;33504;52.066;6.096;2023-02-14T04:49:35;103368.61;;;4.09;45.09
47742;BME280;33504;52.066;6.096;2023-02-14T04:52:03;103365.60;;;3.59;45.15
47742;BME280;33504;52.066;6.096;2023-02-14T04:54:32;103362.14;;;3.81;45.11
47742;BME280;33504;52.066;6.096;2023-02-14T04:56:59;103359.79;;;3.56;45.08
47742;BME280;33504;52.066;6.096;2023-02-14T04:59:26;103359.32;;;4.02;45.11
47742;BME280;33504;52.066;6.096;2023-02-14T05:01:53;103357.96;;;3.73;45.09
47742;BME280;33504;52.066;6.096;2023-02-14T05:04:21;103354.07;;;3.50;44.93
47742;BME280;33504;52.066;6.096;2023-02-14T05:06:48;103350.84;;;3.70;44.75
47742;BME280;33504;52.066;6.096;2023-02-14T05:09:14;103347.99;;;3.69;44.71
47742;BME280;33504;52.066;6.096;2023-02-14T05:11:41;103344.92;;;3.95;44.87
47742;BME280;33504;52.066;6.096;2023-02-14T05:14:08;103342.40;;;3.46;44.96
47742;BME280;33504;52.066;6.096;2023-02-14T05:16:35;103339.18;;;3.43;44.99
47742;BME280;33504;52.066;6.096;2023-02-14T05:19:03;103333.98;;;3.41;44.84
47742;BME280;33504;52.066;6.096;2023-02-14T05:21:30;103333.54;;;3.63;44.65
47742;BME280;33504;52.066;6.096;2023-02-14T05:23:57;103328.01;;;3.39;44.46
47742;BME280;33504;52.066;6.096;2023-02-14T05:26:24;103325.87;;;3.38;44.28
47742;BME280;33504;52.066;6.096;2023-02-14T05:28:52;103328.53;;;3.34;44.23
47742;BME280;33504;52.066;6.096;2023-02-14T05:31:19;103328.82;;;3.52;44.32
47742;BME280;33504;52.066;6.096;2023-02-14T05:33:46;103331.91;;;3.28;44.38
47742;BME280;33504;52.066;6.096;2023-02-14T05:36:13;103327.96;;;3.48;44.20
47742;BME280;33504;52.066;6.096;2023-02-14T05:38:40;103329.46;;;3.46;44.04
47742;BME280;33504;52.066;6.096;2023-02-14T05:41:08;103329.74;;;3.70;44.19
47742;BME280;33504;52.066;6.096;2023-02-14T05:43:35;103332.49;;;3.42;44.18
47742;BME280;33504;52.066;6.096;2023-02-14T05:46:03;103337.33;;;3.41;44.11
47742;BME280;33504;52.066;6.096;2023-02-14T05:48:31;103339.07;;;3.21;44.01
47742;BME280;33504;52.066;6.096;2023-02-14T05:51:03;103338.32;;;3.66;44.05
47742;BME280;33504;52.066;6.096;2023-02-14T05:53:30;103339.44;;;3.13;44.47
47742;BME280;33504;52.066;6.096;2023-02-14T05:55:57;103339.35;;;3.31;44.57
47742;BME280;33504;52.066;6.096;2023-02-14T05:58:24;103337.50;;;3.04;44.66
47742;BME280;33504;52.066;6.096;2023-02-14T06:00:51;103339.58;;;3.54;44.79
47742;BME280;33504;52.066;6.096;2023-02-14T06:03:18;103336.14;;;3.53;44.81
47742;BME280;33504;52.066;6.096;2023-02-14T06:05:45;103334.16;;;3.27;44.87
47742;BME280;33504;52.066;6.096;2023-02-14T06:08:12;103336.58;;;3.03;44.86
47742;BME280;33504;52.066;6.096;2023-02-14T06:10:39;103338.99;;;3.52;44.94
47742;BME280;33504;52.066;6.096;2023-02-14T06:13:06;103339.16;;;3.03;44.93
47742;BME280;33504;52.066;6.096;2023-02-14T06:15:34;103339.49;;;3.50;45.00
47742;BME280;33504;52.066;6.096;2023-02-14T06:18:01;103337.02;;;3.51;44.97
47742;BME280;33504;52.066;6.096;2023-02-14T06:20:28;103337.94;;;3.27;44.96
47742;BME280;33504;52.066;6.096;2023-02-14T06:22:56;103335.87;;;3.25;44.93
47742;BME280;33504;52.066;6.096;2023-02-14T06:25:24;103336.09;;;3.24;44.92
47742;BME280;33504;52.066;6.096;2023-02-14T06:27:54;103339.12;;;3.48;44.86
47742;BME280;33504;52.066;6.096;2023-02-14T06:30:21;103337.14;;;2.99;44.88
47742;BME280;33504;52.066;6.096;2023-02-14T06:32:48;103338.24;;;3.47;44.91
47742;BME280;33504;52.066;6.096;2023-02-14T06:35:15;103337.15;;;3.19;44.96
47742;BME280;33504;52.066;6.096;2023-02-14T06:37:43;103337.05;;;3.19;44.97
47742;BME280;33504;52.066;6.096;2023-02-14T06:40:12;103339.79;;;3.18;45.00
47742;BME280;33504;52.066;6.096;2023-02-14T06:42:39;103340.51;;;3.43;45.00
47742;BME280;33504;52.066;6.096;2023-02-14T06:45:07;103342.87;;;3.15;45.08
47742;BME280;33504;52.066;6.096;2023-02-14T06:47:35;103347.10;;;3.42;45.12
47742;BME280;33504;52.066;6.096;2023-02-14T06:50:02;103346.99;;;3.42;45.07
47742;BME280;33504;52.066;6.096;2023-02-14T06:52:30;103347.81;;;2.94;45.09
47742;BME280;33504;52.066;6.096;2023-02-14T06:54:57;103347.58;;;3.45;45.06
47742;BME280;33504;52.066;6.096;2023-02-14T06:57:24;103351.75;;;3.18;45.14
47742;BME280;33504;52.066;6.096;2023-02-14T06:59:51;103354.82;;;2.96;45.16
47742;BME280;33504;52.066;6.096;2023-02-14T07:02:19;103357.50;;;3.46;45.11
47742;BME280;33504;52.066;6.096;2023-02-14T07:04:46;103357.93;;;2.98;45.07
47742;BME280;33504;52.066;6.096;2023-02-14T07:07:13;103358.75;;;3.48;45.03
47742;BME280;33504;52.066;6.096;2023-02-14T07:09:40;103356.79;;;3.45;44.97
47742;BME280;33504;52.066;6.096;2023-02-14T07:12:08;103354.55;;;3.43;45.04
47742;BME280;33504;52.066;6.096;2023-02-14T07:14:35;103354.98;;;3.44;45.08
47742;BME280;33504;52.066;6.096;2023-02-14T07:17:02;103357.35;;;3.43;45.12
47742;BME280;33504;52.066;6.096;2023-02-14T07:19:30;103358.77;;;3.43;45.25
47742;BME280;33504;52.066;6.096;2023-02-14T07:21:57;103360.69;;;3.44;45.22
47742;BME280;33504;52.066;6.096;2023-02-14T07:24:25;103362.44;;;3.18;45.26
47742;BME280;33504;52.066;6.096;2023-02-14T07:26:52;103360.90;;;2.97;45.27
47742;BME280;33504;52.066;6.096;2023-02-14T07:29:19;103365.32;;;3.51;45.28
47742;BME280;33504;52.066;6.096;2023-02-14T07:31:46;103368.55;;;3.52;45.25
47742;BME280;33504;52.066;6.096;2023-02-14T07:34:13;103371.00;;;3.58;45.36
47742;BME280;33504;52.066;6.096;2023-02-14T07:36:40;103373.12;;;3.61;45.28
47742;BME280;33504;52.066;6.096;2023-02-14T07:39:07;103370.30;;;3.17;45.36
47742;BME280;33504;52.066;6.096;2023-02-14T07:41:34;103369.18;;;3.71;45.33
47742;BME280;33504;52.066;6.096;2023-02-14T07:44:02;103368.39;;;3.49;45.27
47742;BME280;33504;52.066;6.096;2023-02-14T07:46:29;103371.33;;;3.32;45.33
47742;BME280;33504;52.066;6.096;2023-02-14T07:48:55;103368.80;;;3.34;45.32
47742;BME280;33504;52.066;6.096;2023-02-14T07:51:23;103368.18;;;3.38;45.36
47742;BME280;33504;52.066;6.096;2023-02-14T07:53:50;103372.26;;;3.44;45.32
47742;BME280;33504;52.066;6.096;2023-02-14T07:56:17;103373.49;;;3.51;45.33
47742;BME280;33504;52.066;6.096;2023-02-14T07:58:44;103377.38;;;3.62;45.29
47742;BME280;33504;52.066;6.096;2023-02-14T08:01:12;103374.32;;;3.89;45.35
47742;BME280;33504;52.066;6.096;2023-02-14T08:03:38;103371.40;;;4.72;45.39
47742;BME280;33504;52.066;6.096;2023-02-14T08:06:06;103370.96;;;5.51;45.10
47742;BME280;33504;52.066;6.096;2023-02-14T08:08:33;103369.28;;;5.72;45.18
47742;BME280;33504;52.066;6.096;2023-02-14T08:11:00;103370.91;;;5.97;46.04
47742;BME280;33504;52.066;6.096;2023-02-14T08:13:27;103366.94;;;6.42;46.36
47742;BME280;33504;52.066;6.096;2023-02-14T08:15:55;103369.24;;;6.17;47.36
47742;BME280;33504;52.066;6.096;2023-02-14T08:18:22;103361.51;;;7.23;46.00
47742;BME280;33504;52.066;6.096;2023-02-14T08:20:49;103361.38;;;7.55;44.58
47742;BME280;33504;52.066;6.096;2023-02-14T08:23:17;103361.57;;;8.06;43.72
47742;BME280;33504;52.066;6.096;2023-02-14T08:25:45;103360.41;;;8.31;43.10
47742;BME280;33504;52.066;6.096;2023-02-14T08:28:11;103358.40;;;8.16;42.88
47742;BME280;33504;52.066;6.096;2023-02-14T08:30:40;103357.43;;;8.84;42.34
47742;BME280;33504;52.066;6.096;2023-02-14T08:33:07;103354.03;;;8.76;41.75
47742;BME280;33504;52.066;6.096;2023-02-14T08:35:35;103354.14;;;9.23;41.71
47742;BME280;33504;52.066;6.096;2023-02-14T08:38:03;103352.56;;;9.33;41.05
47742;BME280;33504;52.066;6.096;2023-02-14T08:40:30;103350.81;;;10.18;40.57
47742;BME280;33504;52.066;6.096;2023-02-14T08:42:58;103349.61;;;10.42;39.80
47742;BME280;33504;52.066;6.096;2023-02-14T08:45:25;103346.88;;;10.76;39.73
47742;BME280;33504;52.066;6.096;2023-02-14T08:47:52;103346.12;;;10.64;39.31
47742;BME280;33504;52.066;6.096;2023-02-14T08:50:20;103348.89;;;10.71;39.67
47742;BME280;33504;52.066;6.096;2023-02-14T08:52:47;103353.36;;;10.13;39.97
47742;BME280;33504;52.066;6.096;2023-02-14T08:55:14;103354.81;;;10.74;39.45
47742;BME280;33504;52.066;6.096;2023-02-14T08:57:41;103361.00;;;10.70;39.56
47742;BME280;33504;52.066;6.096;2023-02-14T09:00:09;103361.12;;;11.07;39.35
47742;BME280;33504;52.066;6.096;2023-02-14T09:02:36;103355.44;;;10.84;39.38
47742;BME280;33504;52.066;6.096;2023-02-14T09:05:04;103356.43;;;10.77;39.11
47742;BME280;33504;52.066;6.096;2023-02-14T09:07:32;103354.95;;;11.00;38.67
47742;BME280;33504;52.066;6.096;2023-02-14T09:09:58;103355.63;;;11.33;38.47
47742;BME280;33504;52.066;6.096;2023-02-14T09:12:25;103352.20;;;11.72;38.24
47742;BME280;33504;52.066;6.096;2023-02-14T09:14:52;103348.64;;;11.85;37.81
47742;BME280;33504;52.066;6.096;2023-02-14T09:17:20;103346.36;;;12.13;37.07
47742;BME280;33504;52.066;6.096;2023-02-14T09:19:47;103345.36;;;11.84;37.21
47742;BME280;33504;52.066;6.096;2023-02-14T09:22:14;103347.97;;;11.51;37.82
47742;BME280;33504;52.066;6.096;2023-02-14T09:24:41;103344.73;;;12.17;37.09
47742;BME280;33504;52.066;6.096;2023-02-14T09:27:08;103344.74;;;11.57;37.56
47742;BME280;33504;52.066;6.096;2023-02-14T09:29:35;103340.09;;;11.81;37.51
47742;BME280;33504;52.066;6.096;2023-02-14T09:32:03;103339.34;;;12.03;37.44
47742;BME280;33504;52.066;6.096;2023-02-14T09:34:32;103334.08;;;12.05;36.87
47742;BME280;33504;52.066;6.096;2023-02-14T09:36:59;103334.18;;;12.52;36.81
47742;BME280;33504;52.066;6.096;2023-02-14T09:39:26;103337.09;;;12.72;36.10
47742;BME280;33504;52.066;6.096;2023-02-14T09:42:06;103335.41;;;12.56;36.66
47742;BME280;33504;52.066;6.096;2023-02-14T09:44:38;103334.89;;;12.38;36.34
47742;BME280;33504;52.066;6.096;2023-02-14T09:47:13;103333.02;;;12.54;35.86
47742;BME280;33504;52.066;6.096;2023-02-14T09:49:44;103333.20;;;11.91;36.93
47742;BME280;33504;52.066;6.096;2023-02-14T09:52:13;103327.66;;;12.53;36.57
47742;BME280;33504;52.066;6.096;2023-02-14T09:54:46;103327.35;;;13.74;35.31
47742;BME280;33504;52.066;6.096;2023-02-14T09:57:22;103328.06;;;13.95;34.41
47742;BME280;33504;52.066;6.096;2023-02-14T09:59:54;103330.00;;;14.73;33.88
47742;BME280;33504;52.066;6.096;2023-02-14T10:02:37;103327.28;;;14.98;33.06
47742;BME280;33504;52.066;6.096;2023-02-14T10:05:11;103326.14;;;14.61;32.63
47742;BME280;33504;52.066;6.096;2023-02-14T10:07:51;103328.70;;;15.15;32.73
47742;BME280;33504;52.066;6.096;2023-02-14T10:10:25;103326.70;;;15.65;31.74
47742;BME280;33504;52.066;6.096;2023-02-14T10:12:58;103324.61;;;15.80;31.13
47742;BME280;33504;52.066;6.096;2023-02-14T10:15:31;103323.63;;;16.60;30.32
47742;BME280;33504;52.066;6.096;2023-02-14T10:18:03;103321.27;;;16.97;30.12
47742;BME280;33504;52.066;6.096;2023-02-14T10:20:33;103321.13;;;17.06;29.48
47742;BME280;33504;52.066;6.096;2023-02-14T10:23:05;103322.21;;;16.57;29.68
47742;BME280;33504;52.066;6.096;2023-02-14T10:25:41;103321.02;;;16.59;30.10
47742;BME280;33504;52.066;6.096;2023-02-14T10:28:13;103318.28;;;16.47;30.30
47742;BME280;33504;52.066;6.096;2023-02-14T10:30:49;103316.24;;;16.70;29.39
47742;BME280;33504;52.066;6.096;2023-02-14T10:33:25;103317.27;;;16.75;30.47
47742;BME280;33504;52.066;6.096;2023-02-14T10:36:00;103315.90;;;17.16;29.73
47742;BME280;33504;52.066;6.096;2023-02-14T10:38:38;103318.02;;;17.16;29.16
47742;BME280;33504;52.066;6.096;2023-02-14T10:41:19;103317.69;;;17.04;29.46
47742;BME280;33504;52.066;6.096;2023-02-14T10:44:00;103317.88;;;16.56;30.12
47742;BME280;33504;52.066;6.096;2023-02-14T10:46:35;103316.04;;;17.47;29.58
47742;BME280;33504;52.066;6.096;2023-02-14T10:49:18;103318.16;;;17.37;29.23
47742;BME280;33504;52.066;6.096;2023-02-14T10:51:54;103316.57;;;17.76;28.92
47742;BME280;33504;52.066;6.096;2023-02-14T10:54:26;103310.58;;;17.62;28.80
47742;BME280;33504;52.066;6.096;2023-02-14T10:56:59;103309.67;;;18.04;28.45
47742;BME280;33504;52.066;6.096;2023-02-14T10:59:31;103305.90;;;17.57;28.60
47742;BME280;33504;52.066;6.096;2023-02-14T11:02:01;103303.21;;;17.97;28.45
47742;BME280;33504;52.066;6.096;2023-02-14T11:04:30;103300.63;;;18.45;28.14
47742;BME280;33504;52.066;6.096;2023-02-14T11:06:58;103296.23;;;18.71;28.55
47742;BME280;33504;52.066;6.096;2023-02-14T11:09:25;103298.12;;;18.38;28.07
47742;BME280;33504;52.066;6.096;2023-02-14T11:11:53;103298.98;;;18.11;27.99
47742;BME280;33504;52.066;6.096;2023-02-14T11:14:25;103296.33;;;18.93;27.62
47742;BME280;33504;52.066;6.096;2023-02-14T11:16:53;103297.60;;;17.86;27.95
47742;BME280;33504;52.066;6.096;2023-02-14T11:19:24;103297.18;;;18.30;27.88
47742;BME280;33504;52.066;6.096;2023-02-14T11:21:53;103289.52;;;18.32;28.43
47742;BME280;33504;52.066;6.096;2023-02-14T11:24:26;103281.67;;;19.15;27.53
47742;BME280;33504;52.066;6.096;2023-02-14T11:26:57;103284.45;;;18.97;27.47
47742;BME280;33504;52.066;6.096;2023-02-14T11:29:28;103276.49;;;19.53;26.63
47742;BME280;33504;52.066;6.096;2023-02-14T11:31:55;103272.96;;;20.13;26.55
47742;BME280;33504;52.066;6.096;2023-02-14T11:34:32;103266.39;;;20.04;25.90
47742;BME280;33504;52.066;6.096;2023-02-14T11:37:00;103268.05;;;19.60;26.45
47742;BME280;33504;52.066;6.096;2023-02-14T11:39:30;103265.62;;;19.50;26.45
47742;BME280;33504;52.066;6.096;2023-02-14T11:42:00;103264.00;;;19.09;26.90
47742;BME280;33504;52.066;6.096;2023-02-14T11:44:30;103259.20;;;18.74;27.52
47742;BME280;33504;52.066;6.096;2023-02-14T11:47:15;103255.74;;;19.24;27.30
47742;BME280;33504;52.066;6.096;2023-02-14T11:49:54;103250.86;;;19.86;26.46
47742;BME280;33504;52.066;6.096;2023-02-14T11:52:21;103248.36;;;19.67;26.36
47742;BME280;33504;52.066;6.096;2023-02-14T11:54:50;103244.59;;;19.83;26.45
47742;BME280;33504;52.066;6.096;2023-02-14T11:57:21;103238.65;;;20.19;26.39
47742;BME280;33504;52.066;6.096;2023-02-14T11:59:51;103241.70;;;20.59;26.20
47742;BME280;33504;52.066;6.096;2023-02-14T12:02:31;103237.17;;;20.58;25.26
47742;BME280;33504;52.066;6.096;2023-02-14T12:05:04;103237.67;;;19.88;25.64
47742;BME280;33504;52.066;6.096;2023-02-14T12:07:34;103234.71;;;18.88;26.93
47742;BME280;33504;52.066;6.096;2023-02-14T12:10:15;103230.58;;;19.65;26.53
47742;BME280;33504;52.066;6.096;2023-02-14T12:12:49;103230.66;;;19.66;26.91
47742;BME280;33504;52.066;6.096;2023-02-14T12:15:28;103225.66;;;19.01;26.88
47742;BME280;33504;52.066;6.096;2023-02-14T12:18:03;103218.05;;;19.87;26.70
47742;BME280;33504;52.066;6.096;2023-02-14T12:20:39;103213.05;;;19.82;26.43
47742;BME280;33504;52.066;6.096;2023-02-14T12:23:14;103207.29;;;19.56;26.71
47742;BME280;33504;52.066;6.096;2023-02-14T12:25:47;103198.66;;;19.29;26.79
47742;BME280;33504;52.066;6.096;2023-02-14T12:28:18;103194.12;;;19.84;26.86
47742;BME280;33504;52.066;6.096;2023-02-14T12:30:48;103192.10;;;19.25;27.17
47742;BME280;33504;52.066;6.096;2023-02-14T12:33:19;103191.73;;;18.84;27.61
47742;BME280;33504;52.066;6.096;2023-02-14T12:35:53;103192.16;;;18.56;27.69
47742;BME280;33504;52.066;6.096;2023-02-14T12:38:29;103193.56;;;18.11;28.64
47742;BME280;33504;52.066;6.096;2023-02-14T12:41:15;103189.38;;;18.30;29.01
47742;BME280;33504;52.066;6.096;2023-02-14T12:43:46;103182.72;;;18.34;28.99
47742;BME280;33504;52.066;6.096;2023-02-14T12:46:56;103178.03;;;19.59;28.17
47742;BME280;33504;52.066;6.096;2023-02-14T12:49:40;103175.01;;;18.63;28.12
47742;BME280;33504;52.066;6.096;2023-02-14T12:52:26;103173.27;;;18.42;28.81
47742;BME280;33504;52.066;6.096;2023-02-14T12:55:09;103170.57;;;18.07;28.64
47742;BME280;33504;52.066;6.096;2023-02-14T12:57:45;103164.52;;;18.14;29.03
47742;BME280;33504;52.066;6.096;2023-02-14T13:00:23;103159.92;;;18.56;28.89
47742;BME280;33504;52.066;6.096;2023-02-14T13:03:49;103158.58;;;19.37;28.43
47742;BME280;33504;52.066;6.096;2023-02-14T13:06:29;103155.47;;;18.60;29.26
47742;BME280;33504;52.066;6.096;2023-02-14T13:09:07;103152.64;;;18.86;28.52
47742;BME280;33504;52.066;6.096;2023-02-14T13:11:46;103150.65;;;19.37;27.98
47742;BME280;33504;52.066;6.096;2023-02-14T13:14:32;103144.07;;;19.99;27.55
47742;BME280;33504;52.066;6.096;2023-02-14T13:17:09;103138.39;;;20.75;26.86